sensor_id;sensor_type;location;lat;lon;timestamp;P1;P2;P0
42410;PMS5003;28056;51.112;0.984;2023-07-31T00:04:47;13;9;
42410;PMS5003;28056;51.112;0.984;2023-07-31T00:07:15;13;9;
42410;PMS5003;28056;51.112;0.984;2023-07-31T00:09:42;12;7;
42410;PMS5003;28056;51.112;0.984;2023-07-31T00:12:10;7;7;
42410;PMS5003;28056;51.112;0.984;2023-07-31T00:14:37;7;6;
42410;PMS5003;28056;51.112;0.984;2023-07-31T00:17:05;11;8;
42410;PMS5003;28056;51.112;0.984;2023-07-31T00:19:32;5;5;
42410;PMS5003;28056;51.112;0.984;2023-07-31T00:22:00;9;7;
42410;PMS5003;28056;51.112;0.984;2023-07-31T00:24:27;13;7;
42410;PMS5003;28056;51.112;0.984;2023-07-31T00:26:55;6;5;
42410;PMS5003;28056;51.112;0.984;2023-07-31T00:29:22;9;7;
42410;PMS5003;28056;51.112;0.984;2023-07-31T00:31:50;11;9;
42410;PMS5003;28056;51.112;0.984;2023-07-31T00:34:17;6;6;
42410;PMS5003;28056;51.112;0.984;2023-07-31T00:36:44;6;6;
42410;PMS5003;28056;51.112;0.984;2023-07-31T00:39:11;6;5;
42410;PMS5003;28056;51.112;0.984;2023-07-31T00:41:38;10;7;
42410;PMS5003;28056;51.112;0.984;2023-07-31T00:44:06;7;5;
42410;PMS5003;28056;51.112;0.984;2023-07-31T00:46:34;6;6;
42410;PMS5003;28056;51.112;0.984;2023-07-31T00:49:01;6;6;
42410;PMS5003;28056;51.112;0.984;2023-07-31T00:51:28;11;6;
42410;PMS5003;28056;51.112;0.984;2023-07-31T00:53:56;6;4;
42410;PMS5003;28056;51.112;0.984;2023-07-31T00:56:24;4;4;
42410;PMS5003;28056;51.112;0.984;2023-07-31T00:58:52;4;3;
42410;PMS5003;28056;51.112;0.984;2023-07-31T01:01:19;6;4;
42410;PMS5003;28056;51.112;0.984;2023-07-31T01:03:47;8;6;
42410;PMS5003;28056;51.112;0.984;2023-07-31T01:06:17;7;4;
42410;PMS5003;28056;51.112;0.984;2023-07-31T01:08:53;3;3;
42410;PMS5003;28056;51.112;0.984;2023-07-31T01:11:28;3;3;
42410;PMS5003;28056;51.112;0.984;2023-07-31T01:13:57;3;3;
42410;PMS5003;28056;51.112;0.984;2023-07-31T01:16:25;5;5;
42410;PMS5003;28056;51.112;0.984;2023-07-31T01:18:53;4;3;
42410;PMS5003;28056;51.112;0.984;2023-07-31T01:21:23;3;3;
42410;PMS5003;28056;51.112;0.984;2023-07-31T01:24:38;3;1;
42410;PMS5003;28056;51.112;0.984;2023-07-31T01:27:17;6;4;
42410;PMS5003;28056;51.112;0.984;2023-07-31T01:29:52;4;2;
42410;PMS5003;28056;51.112;0.984;2023-07-31T01:32:25;3;3;
42410;PMS5003;28056;51.112;0.984;2023-07-31T01:34:55;2;2;
42410;PMS5003;28056;51.112;0.984;2023-07-31T01:37:27;3;3;
42410;PMS5003;28056;51.112;0.984;2023-07-31T01:39:55;2;2;
42410;PMS5003;28056;51.112;0.984;2023-07-31T01:42:23;2;2;
42410;PMS5003;28056;51.112;0.984;2023-07-31T01:44:51;4;4;
42410;PMS5003;28056;51.112;0.984;2023-07-31T01:47:18;3;3;
42410;PMS5003;28056;51.112;0.984;2023-07-31T01:49:46;3;3;
42410;PMS5003;28056;51.112;0.984;2023-07-31T01:52:13;4;3;
42410;PMS5003;28056;51.112;0.984;2023-07-31T01:54:41;10;5;
42410;PMS5003;28056;51.112;0.984;2023-07-31T01:57:08;5;3;
42410;PMS5003;28056;51.112;0.984;2023-07-31T01:59:36;4;4;
42410;PMS5003;28056;51.112;0.984;2023-07-31T02:02:04;3;3;
42410;PMS5003;28056;51.112;0.984;2023-07-31T02:04:32;2;1;
42410;PMS5003;28056;51.112;0.984;2023-07-31T02:07:00;1;1;
42410;PMS5003;28056;51.112;0.984;2023-07-31T02:09:27;1;1;
42410;PMS5003;28056;51.112;0.984;2023-07-31T02:11:55;2;2;
42410;PMS5003;28056;51.112;0.984;2023-07-31T02:14:22;2;2;
42410;PMS5003;28056;51.112;0.984;2023-07-31T02:16:50;3;3;
42410;PMS5003;28056;51.112;0.984;2023-07-31T02:19:18;4;3;
42410;PMS5003;28056;51.112;0.984;2023-07-31T02:21:56;5;2;
42410;PMS5003;28056;51.112;0.984;2023-07-31T02:24:24;6;3;
42410;PMS5003;28056;51.112;0.984;2023-07-31T02:26:52;2;2;
42410;PMS5003;28056;51.112;0.984;2023-07-31T02:29:18;2;2;
42410;PMS5003;28056;51.112;0.984;2023-07-31T02:31:46;5;3;
42410;PMS5003;28056;51.112;0.984;2023-07-31T02:34:14;10;4;
42410;PMS5003;28056;51.112;0.984;2023-07-31T02:36:41;5;5;
42410;PMS5003;28056;51.112;0.984;2023-07-31T02:39:09;4;4;
42410;PMS5003;28056;51.112;0.984;2023-07-31T02:41:36;6;5;
42410;PMS5003;28056;51.112;0.984;2023-07-31T02:44:04;5;4;
42410;PMS5003;28056;51.112;0.984;2023-07-31T02:46:31;5;5;
42410;PMS5003;28056;51.112;0.984;2023-07-31T02:48:59;7;5;
42410;PMS5003;28056;51.112;0.984;2023-07-31T02:51:26;4;4;
42410;PMS5003;28056;51.112;0.984;2023-07-31T02:53:54;9;4;
42410;PMS5003;28056;51.112;0.984;2023-07-31T02:56:22;6;4;
42410;PMS5003;28056;51.112;0.984;2023-07-31T02:58:49;5;5;
42410;PMS5003;28056;51.112;0.984;2023-07-31T03:01:17;7;4;
42410;PMS5003;28056;51.112;0.984;2023-07-31T03:03:43;3;3;
42410;PMS5003;28056;51.112;0.984;2023-07-31T03:06:11;5;5;
42410;PMS5003;28056;51.112;0.984;2023-07-31T03:08:39;2;2;
42410;PMS5003;28056;51.112;0.984;2023-07-31T03:11:06;4;4;
42410;PMS5003;28056;51.112;0.984;2023-07-31T03:13:34;10;8;
42410;PMS5003;28056;51.112;0.984;2023-07-31T03:16:01;6;5;
42410;PMS5003;28056;51.112;0.984;2023-07-31T03:18:29;6;6;
42410;PMS5003;28056;51.112;0.984;2023-07-31T03:20:57;7;4;
42410;PMS5003;28056;51.112;0.984;2023-07-31T03:23:24;7;4;
42410;PMS5003;28056;51.112;0.984;2023-07-31T03:25:56;7;5;
42410;PMS5003;28056;51.112;0.984;2023-07-31T03:28:24;6;6;
42410;PMS5003;28056;51.112;0.984;2023-07-31T03:30:51;5;4;
42410;PMS5003;28056;51.112;0.984;2023-07-31T03:33:19;5;5;
42410;PMS5003;28056;51.112;0.984;2023-07-31T03:35:47;7;5;
42410;PMS5003;28056;51.112;0.984;2023-07-31T03:38:14;6;6;
42410;PMS5003;28056;51.112;0.984;2023-07-31T03:40:42;5;5;
42410;PMS5003;28056;51.112;0.984;2023-07-31T03:43:10;5;5;
42410;PMS5003;28056;51.112;0.984;2023-07-31T03:45:37;7;7;
42410;PMS5003;28056;51.112;0.984;2023-07-31T03:48:05;7;5;
42410;PMS5003;28056;51.112;0.984;2023-07-31T03:50:32;5;5;
42410;PMS5003;28056;51.112;0.984;2023-07-31T03:53:00;5;4;
42410;PMS5003;28056;51.112;0.984;2023-07-31T03:55:27;7;5;
42410;PMS5003;28056;51.112;0.984;2023-07-31T03:57:55;5;4;
42410;PMS5003;28056;51.112;0.984;2023-07-31T04:00:23;5;3;
42410;PMS5003;28056;51.112;0.984;2023-07-31T04:02:53;3;3;
42410;PMS5003;28056;51.112;0.984;2023-07-31T04:05:20;6;6;
42410;PMS5003;28056;51.112;0.984;2023-07-31T04:07:48;5;3;
42410;PMS5003;28056;51.112;0.984;2023-07-31T04:10:15;5;3;
42410;PMS5003;28056;51.112;0.984;2023-07-31T04:12:43;2;2;
42410;PMS5003;28056;51.112;0.984;2023-07-31T04:15:11;3;3;
42410;PMS5003;28056;51.112;0.984;2023-07-31T04:17:38;3;3;
42410;PMS5003;28056;51.112;0.984;2023-07-31T04:20:06;4;3;
42410;PMS5003;28056;51.112;0.984;2023-07-31T04:22:34;3;3;
42410;PMS5003;28056;51.112;0.984;2023-07-31T04:25:02;4;2;
42410;PMS5003;28056;51.112;0.984;2023-07-31T04:27:29;5;2;
42410;PMS5003;28056;51.112;0.984;2023-07-31T04:29:57;3;1;
42410;PMS5003;28056;51.112;0.984;2023-07-31T04:32:25;1;1;
42410;PMS5003;28056;51.112;0.984;2023-07-31T04:34:52;3;3;
42410;PMS5003;28056;51.112;0.984;2023-07-31T04:37:20;1;1;
42410;PMS5003;28056;51.112;0.984;2023-07-31T04:39:47;1;1;
42410;PMS5003;28056;51.112;0.984;2023-07-31T04:42:15;3;3;
42410;PMS5003;28056;51.112;0.984;2023-07-31T04:44:43;2;2;
42410;PMS5003;28056;51.112;0.984;2023-07-31T04:47:10;2;2;
42410;PMS5003;28056;51.112;0.984;2023-07-31T04:49:38;1;1;
42410;PMS5003;28056;51.112;0.984;2023-07-31T04:52:05;1;1;
42410;PMS5003;28056;51.112;0.984;2023-07-31T04:54:33;1;1;
42410;PMS5003;28056;51.112;0.984;2023-07-31T04:57:00;1;1;
42410;PMS5003;28056;51.112;0.984;2023-07-31T04:59:28;3;2;
42410;PMS5003;28056;51.112;0.984;2023-07-31T05:01:56;2;2;
42410;PMS5003;28056;51.112;0.984;2023-07-31T05:04:23;2;2;
42410;PMS5003;28056;51.112;0.984;2023-07-31T05:06:51;1;1;
42410;PMS5003;28056;51.112;0.984;2023-07-31T05:09:18;2;2;
42410;PMS5003;28056;51.112;0.984;2023-07-31T05:11:46;0;0;
42410;PMS5003;28056;51.112;0.984;2023-07-31T05:14:14;2;2;
42410;PMS5003;28056;51.112;0.984;2023-07-31T05:16:41;1;1;
42410;PMS5003;28056;51.112;0.984;2023-07-31T05:19:09;2;2;
42410;PMS5003;28056;51.112;0.984;2023-07-31T05:21:36;1;1;
42410;PMS5003;28056;51.112;0.984;2023-07-31T05:24:04;2;2;
42410;PMS5003;28056;51.112;0.984;2023-07-31T05:26:31;1;1;
42410;PMS5003;28056;51.112;0.984;2023-07-31T05:28:59;3;2;
42410;PMS5003;28056;51.112;0.984;2023-07-31T05:31:27;3;1;
42410;PMS5003;28056;51.112;0.984;2023-07-31T05:33:54;0;0;
42410;PMS5003;28056;51.112;0.984;2023-07-31T05:36:22;1;1;
42410;PMS5003;28056;51.112;0.984;2023-07-31T05:38:49;1;1;
42410;PMS5003;28056;51.112;0.984;2023-07-31T05:41:17;1;1;
42410;PMS5003;28056;51.112;0.984;2023-07-31T05:43:44;0;0;
42410;PMS5003;28056;51.112;0.984;2023-07-31T05:46:12;1;1;
42410;PMS5003;28056;51.112;0.984;2023-07-31T05:48:40;1;1;
42410;PMS5003;28056;51.112;0.984;2023-07-31T05:51:07;1;1;
42410;PMS5003;28056;51.112;0.984;2023-07-31T05:53:34;2;2;
42410;PMS5003;28056;51.112;0.984;2023-07-31T05:56:02;2;2;
42410;PMS5003;28056;51.112;0.984;2023-07-31T05:58:30;2;2;
42410;PMS5003;28056;51.112;0.984;2023-07-31T06:00:57;4;2;
42410;PMS5003;28056;51.112;0.984;2023-07-31T06:03:25;2;2;
42410;PMS5003;28056;51.112;0.984;2023-07-31T06:05:52;2;2;
42410;PMS5003;28056;51.112;0.984;2023-07-31T06:08:20;2;1;
42410;PMS5003;28056;51.112;0.984;2023-07-31T06:10:47;2;2;
42410;PMS5003;28056;51.112;0.984;2023-07-31T06:13:15;6;1;
42410;PMS5003;28056;51.112;0.984;2023-07-31T06:15:43;3;3;
42410;PMS5003;28056;51.112;0.984;2023-07-31T06:18:10;1;1;
42410;PMS5003;28056;51.112;0.984;2023-07-31T06:20:38;2;2;
42410;PMS5003;28056;51.112;0.984;2023-07-31T06:23:05;1;1;
42410;PMS5003;28056;51.112;0.984;2023-07-31T06:25:33;2;2;
42410;PMS5003;28056;51.112;0.984;2023-07-31T06:28:00;3;3;
42410;PMS5003;28056;51.112;0.984;2023-07-31T06:30:28;3;2;
42410;PMS5003;28056;51.112;0.984;2023-07-31T06:32:56;2;1;
42410;PMS5003;28056;51.112;0.984;2023-07-31T06:35:23;2;2;
42410;PMS5003;28056;51.112;0.984;2023-07-31T06:37:51;2;2;
42410;PMS5003;28056;51.112;0.984;2023-07-31T06:40:18;2;2;
42410;PMS5003;28056;51.112;0.984;2023-07-31T06:42:46;1;1;
42410;PMS5003;28056;51.112;0.984;2023-07-31T06:45:13;3;1;
42410;PMS5003;28056;51.112;0.984;2023-07-31T06:47:40;2;2;
42410;PMS5003;28056;51.112;0.984;2023-07-31T06:50:08;1;1;
42410;PMS5003;28056;51.112;0.984;2023-07-31T06:52:35;1;1;
42410;PMS5003;28056;51.112;0.984;2023-07-31T06:55:19;1;1;
42410;PMS5003;28056;51.112;0.984;2023-07-31T06:57:47;0;0;
42410;PMS5003;28056;51.112;0.984;2023-07-31T07:00:16;0;0;
42410;PMS5003;28056;51.112;0.984;2023-07-31T07:02:44;3;1;
42410;PMS5003;28056;51.112;0.984;2023-07-31T07:05:11;2;1;
42410;PMS5003;28056;51.112;0.984;2023-07-31T07:07:39;2;1;
42410;PMS5003;28056;51.112;0.984;2023-07-31T07:10:07;2;2;
42410;PMS5003;28056;51.112;0.984;2023-07-31T07:12:35;2;2;
42410;PMS5003;28056;51.112;0.984;2023-07-31T07:15:02;2;2;
42410;PMS5003;28056;51.112;0.984;2023-07-31T07:17:30;2;2;
42410;PMS5003;28056;51.112;0.984;2023-07-31T07:19:57;1;1;
42410;PMS5003;28056;51.112;0.984;2023-07-31T07:22:25;1;1;
42410;PMS5003;28056;51.112;0.984;2023-07-31T07:24:53;1;1;
42410;PMS5003;28056;51.112;0.984;2023-07-31T07:27:20;3;3;
42410;PMS5003;28056;51.112;0.984;2023-07-31T07:29:50;4;2;
42410;PMS5003;28056;51.112;0.984;2023-07-31T07:32:18;2;2;
42410;PMS5003;28056;51.112;0.984;2023-07-31T07:34:46;1;1;
42410;PMS5003;28056;51.112;0.984;2023-07-31T07:37:15;1;1;
42410;PMS5003;28056;51.112;0.984;2023-07-31T07:39:42;2;2;
42410;PMS5003;28056;51.112;0.984;2023-07-31T07:42:11;1;1;
42410;PMS5003;28056;51.112;0.984;2023-07-31T07:44:38;0;0;
42410;PMS5003;28056;51.112;0.984;2023-07-31T07:47:06;1;1;
42410;PMS5003;28056;51.112;0.984;2023-07-31T07:49:33;1;1;
42410;PMS5003;28056;51.112;0.984;2023-07-31T07:52:02;0;0;
42410;PMS5003;28056;51.112;0.984;2023-07-31T07:54:30;2;0;
42410;PMS5003;28056;51.112;0.984;2023-07-31T07:56:57;3;1;
42410;PMS5003;28056;51.112;0.984;2023-07-31T07:59:25;1;1;
42410;PMS5003;28056;51.112;0.984;2023-07-31T08:01:53;0;0;
42410;PMS5003;28056;51.112;0.984;2023-07-31T08:04:20;1;1;
42410;PMS5003;28056;51.112;0.984;2023-07-31T08:06:48;1;1;
42410;PMS5003;28056;51.112;0.984;2023-07-31T08:09:15;0;0;
42410;PMS5003;28056;51.112;0.984;2023-07-31T08:11:43;1;1;
42410;PMS5003;28056;51.112;0.984;2023-07-31T08:14:10;1;1;
42410;PMS5003;28056;51.112;0.984;2023-07-31T08:16:38;0;0;
42410;PMS5003;28056;51.112;0.984;2023-07-31T08:19:06;2;2;
42410;PMS5003;28056;51.112;0.984;2023-07-31T08:21:34;1;1;
42410;PMS5003;28056;51.112;0.984;2023-07-31T08:24:01;2;2;
42410;PMS5003;28056;51.112;0.984;2023-07-31T08:26:29;2;1;
42410;PMS5003;28056;51.112;0.984;2023-07-31T08:28:56;1;1;
42410;PMS5003;28056;51.112;0.984;2023-07-31T08:31:24;1;1;
42410;PMS5003;28056;51.112;0.984;2023-07-31T08:33:51;1;1;
42410;PMS5003;28056;51.112;0.984;2023-07-31T08:36:19;2;1;
42410;PMS5003;28056;51.112;0.984;2023-07-31T08:38:46;1;1;
42410;PMS5003;28056;51.112;0.984;2023-07-31T08:41:14;1;1;
42410;PMS5003;28056;51.112;0.984;2023-07-31T08:43:42;2;2;
42410;PMS5003;28056;51.112;0.984;2023-07-31T08:46:10;1;1;
42410;PMS5003;28056;51.112;0.984;2023-07-31T08:48:37;1;1;
42410;PMS5003;28056;51.112;0.984;2023-07-31T08:51:07;1;1;
42410;PMS5003;28056;51.112;0.984;2023-07-31T08:53:34;2;2;
42410;PMS5003;28056;51.112;0.984;2023-07-31T08:56:02;2;2;
42410;PMS5003;28056;51.112;0.984;2023-07-31T08:58:30;1;1;
42410;PMS5003;28056;51.112;0.984;2023-07-31T09:00:59;3;1;
42410;PMS5003;28056;51.112;0.984;2023-07-31T09:03:30;4;2;
42410;PMS5003;28056;51.112;0.984;2023-07-31T09:06:01;2;2;
42410;PMS5003;28056;51.112;0.984;2023-07-31T09:08:30;2;2;
42410;PMS5003;28056;51.112;0.984;2023-07-31T09:10:59;2;2;
42410;PMS5003;28056;51.112;0.984;2023-07-31T09:13:27;5;1;
42410;PMS5003;28056;51.112;0.984;2023-07-31T09:15:56;1;1;
42410;PMS5003;28056;51.112;0.984;2023-07-31T09:18:23;1;1;
42410;PMS5003;28056;51.112;0.984;2023-07-31T09:21:03;1;1;
42410;PMS5003;28056;51.112;0.984;2023-07-31T09:23:47;1;1;
42410;PMS5003;28056;51.112;0.984;2023-07-31T09:26:28;3;0;
42410;PMS5003;28056;51.112;0.984;2023-07-31T09:28:57;1;1;
42410;PMS5003;28056;51.112;0.984;2023-07-31T09:31:32;0;0;
42410;PMS5003;28056;51.112;0.984;2023-07-31T09:34:04;1;1;
42410;PMS5003;28056;51.112;0.984;2023-07-31T09:36:31;2;1;
42410;PMS5003;28056;51.112;0.984;2023-07-31T09:39:02;0;0;
42410;PMS5003;28056;51.112;0.984;2023-07-31T09:41:29;0;0;
42410;PMS5003;28056;51.112;0.984;2023-07-31T09:43:57;1;1;
42410;PMS5003;28056;51.112;0.984;2023-07-31T09:46:27;0;0;
42410;PMS5003;28056;51.112;0.984;2023-07-31T09:49:03;1;1;
42410;PMS5003;28056;51.112;0.984;2023-07-31T09:51:32;1;1;
42410;PMS5003;28056;51.112;0.984;2023-07-31T09:54:00;2;1;
42410;PMS5003;28056;51.112;0.984;2023-07-31T09:56:28;0;0;
42410;PMS5003;28056;51.112;0.984;2023-07-31T09:58:59;1;1;
42410;PMS5003;28056;51.112;0.984;2023-07-31T10:01:26;2;2;
42410;PMS5003;28056;51.112;0.984;2023-07-31T10:03:54;1;0;
42410;PMS5003;28056;51.112;0.984;2023-07-31T10:06:23;0;0;
42410;PMS5003;28056;51.112;0.984;2023-07-31T10:08:51;0;0;
42410;PMS5003;28056;51.112;0.984;2023-07-31T10:11:21;0;0;
42410;PMS5003;28056;51.112;0.984;2023-07-31T10:13:51;0;0;
42410;PMS5003;28056;51.112;0.984;2023-07-31T10:16:20;1;1;
42410;PMS5003;28056;51.112;0.984;2023-07-31T10:18:48;0;0;
42410;PMS5003;28056;51.112;0.984;2023-07-31T10:21:17;0;0;
42410;PMS5003;28056;51.112;0.984;2023-07-31T10:23:45;0;0;
42410;PMS5003;28056;51.112;0.984;2023-07-31T10:26:14;0;0;
42410;PMS5003;28056;51.112;0.984;2023-07-31T10:28:45;0;0;
42410;PMS5003;28056;51.112;0.984;2023-07-31T10:31:15;0;0;
42410;PMS5003;28056;51.112;0.984;2023-07-31T10:33:43;0;0;
42410;PMS5003;28056;51.112;0.984;2023-07-31T10:36:12;0;0;
42410;PMS5003;28056;51.112;0.984;2023-07-31T10:38:40;1;1;
42410;PMS5003;28056;51.112;0.984;2023-07-31T10:41:08;0;0;
42410;PMS5003;28056;51.112;0.984;2023-07-31T10:43:36;0;0;
42410;PMS5003;28056;51.112;0.984;2023-07-31T10:46:06;5;1;
42410;PMS5003;28056;51.112;0.984;2023-07-31T10:48:33;0;0;
42410;PMS5003;28056;51.112;0.984;2023-07-31T10:51:01;0;0;
42410;PMS5003;28056;51.112;0.984;2023-07-31T10:53:34;0;0;
42410;PMS5003;28056;51.112;0.984;2023-07-31T10:56:01;0;0;
42410;PMS5003;28056;51.112;0.984;2023-07-31T10:58:30;0;0;
42410;PMS5003;28056;51.112;0.984;2023-07-31T11:00:58;0;0;
42410;PMS5003;28056;51.112;0.984;2023-07-31T11:03:48;0;0;
42410;PMS5003;28056;51.112;0.984;2023-07-31T11:06:16;0;0;
42410;PMS5003;28056;51.112;0.984;2023-07-31T11:08:44;1;1;
42410;PMS5003;28056;51.112;0.984;2023-07-31T11:11:13;0;0;
42410;PMS5003;28056;51.112;0.984;2023-07-31T11:13:44;0;0;
42410;PMS5003;28056;51.112;0.984;2023-07-31T11:16:13;0;0;
42410;PMS5003;28056;51.112;0.984;2023-07-31T11:18:40;2;0;
42410;PMS5003;28056;51.112;0.984;2023-07-31T11:21:11;1;0;
42410;PMS5003;28056;51.112;0.984;2023-07-31T11:23:39;0;0;
42410;PMS5003;28056;51.112;0.984;2023-07-31T11:26:07;0;0;
42410;PMS5003;28056;51.112;0.984;2023-07-31T11:28:35;1;0;
42410;PMS5003;28056;51.112;0.984;2023-07-31T11:31:02;2;1;
42410;PMS5003;28056;51.112;0.984;2023-07-31T11:33:31;0;0;
42410;PMS5003;28056;51.112;0.984;2023-07-31T11:35:58;1;1;
42410;PMS5003;28056;51.112;0.984;2023-07-31T11:38:26;0;0;
42410;PMS5003;28056;51.112;0.984;2023-07-31T11:40:56;2;1;
42410;PMS5003;28056;51.112;0.984;2023-07-31T11:43:24;0;0;
42410;PMS5003;28056;51.112;0.984;2023-07-31T11:45:53;2;2;
42410;PMS5003;28056;51.112;0.984;2023-07-31T11:48:22;0;0;
42410;PMS5003;28056;51.112;0.984;2023-07-31T11:50:51;1;1;
42410;PMS5003;28056;51.112;0.984;2023-07-31T11:53:22;1;1;
42410;PMS5003;28056;51.112;0.984;2023-07-31T11:55:53;1;1;
42410;PMS5003;28056;51.112;0.984;2023-07-31T11:58:23;1;1;
42410;PMS5003;28056;51.112;0.984;2023-07-31T12:00:51;0;0;
42410;PMS5003;28056;51.112;0.984;2023-07-31T12:03:20;0;0;
42410;PMS5003;28056;51.112;0.984;2023-07-31T12:05:47;0;0;
42410;PMS5003;28056;51.112;0.984;2023-07-31T12:08:15;0;0;
42410;PMS5003;28056;51.112;0.984;2023-07-31T12:10:42;0;0;
42410;PMS5003;28056;51.112;0.984;2023-07-31T12:13:10;1;1;
42410;PMS5003;28056;51.112;0.984;2023-07-31T12:15:46;0;0;
42410;PMS5003;28056;51.112;0.984;2023-07-31T12:18:15;0;0;
42410;PMS5003;28056;51.112;0.984;2023-07-31T12:20:46;2;0;
42410;PMS5003;28056;51.112;0.984;2023-07-31T12:23:15;2;0;
42410;PMS5003;28056;51.112;0.984;2023-07-31T12:25:45;0;0;
42410;PMS5003;28056;51.112;0.984;2023-07-31T12:28:12;0;0;
42410;PMS5003;28056;51.112;0.984;2023-07-31T12:30:40;0;0;
42410;PMS5003;28056;51.112;0.984;2023-07-31T12:33:12;0;0;
42410;PMS5003;28056;51.112;0.984;2023-07-31T12:35:41;0;0;
42410;PMS5003;28056;51.112;0.984;2023-07-31T12:38:11;0;0;
42410;PMS5003;28056;51.112;0.984;2023-07-31T12:40:39;0;0;
42410;PMS5003;28056;51.112;0.984;2023-07-31T12:43:08;0;0;
42410;PMS5003;28056;51.112;0.984;2023-07-31T12:45:35;0;0;
42410;PMS5003;28056;51.112;0.984;2023-07-31T12:48:03;0;0;
42410;PMS5003;28056;51.112;0.984;2023-07-31T12:50:30;0;0;
42410;PMS5003;28056;51.112;0.984;2023-07-31T12:52:58;0;0;
42410;PMS5003;28056;51.112;0.984;2023-07-31T12:55:25;0;0;
42410;PMS5003;28056;51.112;0.984;2023-07-31T12:57:53;0;0;
42410;PMS5003;28056;51.112;0.984;2023-07-31T13:00:21;0;0;
42410;PMS5003;28056;51.112;0.984;2023-07-31T13:02:49;1;0;
42410;PMS5003;28056;51.112;0.984;2023-07-31T13:05:18;1;1;
42410;PMS5003;28056;51.112;0.984;2023-07-31T13:07:45;0;0;
42410;PMS5003;28056;51.112;0.984;2023-07-31T13:10:13;1;1;
42410;PMS5003;28056;51.112;0.984;2023-07-31T13:12:40;0;0;
42410;PMS5003;28056;51.112;0.984;2023-07-31T13:15:08;0;0;
42410;PMS5003;28056;51.112;0.984;2023-07-31T13:17:36;1;1;
42410;PMS5003;28056;51.112;0.984;2023-07-31T13:20:04;0;0;
42410;PMS5003;28056;51.112;0.984;2023-07-31T13:22:32;1;1;
42410;PMS5003;28056;51.112;0.984;2023-07-31T13:25:01;0;0;
42410;PMS5003;28056;51.112;0.984;2023-07-31T13:27:29;1;1;
42410;PMS5003;28056;51.112;0.984;2023-07-31T13:29:56;1;1;
42410;PMS5003;28056;51.112;0.984;2023-07-31T13:32:24;1;1;
42410;PMS5003;28056;51.112;0.984;2023-07-31T13:34:51;1;1;
42410;PMS5003;28056;51.112;0.984;2023-07-31T13:37:19;1;1;
42410;PMS5003;28056;51.112;0.984;2023-07-31T13:39:46;2;1;
42410;PMS5003;28056;51.112;0.984;2023-07-31T13:42:13;1;1;
42410;PMS5003;28056;51.112;0.984;2023-07-31T13:44:41;1;0;
42410;PMS5003;28056;51.112;0.984;2023-07-31T13:47:09;1;1;
42410;PMS5003;28056;51.112;0.984;2023-07-31T13:49:36;1;1;
42410;PMS5003;28056;51.112;0.984;2023-07-31T13:52:04;1;1;
42410;PMS5003;28056;51.112;0.984;2023-07-31T13:54:32;1;1;
42410;PMS5003;28056;51.112;0.984;2023-07-31T13:56:59;1;1;
42410;PMS5003;28056;51.112;0.984;2023-07-31T13:59:27;1;1;
42410;PMS5003;28056;51.112;0.984;2023-07-31T14:01:54;0;0;
42410;PMS5003;28056;51.112;0.984;2023-07-31T14:04:22;1;1;
42410;PMS5003;28056;51.112;0.984;2023-07-31T14:06:49;1;1;
42410;PMS5003;28056;51.112;0.984;2023-07-31T14:09:17;2;1;
42410;PMS5003;28056;51.112;0.984;2023-07-31T14:11:44;0;0;
42410;PMS5003;28056;51.112;0.984;2023-07-31T14:14:12;0;0;
42410;PMS5003;28056;51.112;0.984;2023-07-31T14:16:39;0;0;
42410;PMS5003;28056;51.112;0.984;2023-07-31T14:19:07;1;1;
42410;PMS5003;28056;51.112;0.984;2023-07-31T14:21:35;1;1;
42410;PMS5003;28056;51.112;0.984;2023-07-31T14:24:02;2;2;
42410;PMS5003;28056;51.112;0.984;2023-07-31T14:26:29;0;0;
42410;PMS5003;28056;51.112;0.984;2023-07-31T14:28:57;2;2;
42410;PMS5003;28056;51.112;0.984;2023-07-31T14:31:24;0;0;
42410;PMS5003;28056;51.112;0.984;2023-07-31T14:33:52;2;2;
42410;PMS5003;28056;51.112;0.984;2023-07-31T14:36:19;1;1;
42410;PMS5003;28056;51.112;0.984;2023-07-31T14:38:47;3;2;
42410;PMS5003;28056;51.112;0.984;2023-07-31T14:41:14;3;2;
42410;PMS5003;28056;51.112;0.984;2023-07-31T14:43:42;3;1;
42410;PMS5003;28056;51.112;0.984;2023-07-31T14:46:09;3;3;
42410;PMS5003;28056;51.112;0.984;2023-07-31T14:48:37;1;1;
42410;PMS5003;28056;51.112;0.984;2023-07-31T14:51:05;2;2;
42410;PMS5003;28056;51.112;0.984;2023-07-31T14:53:32;1;1;
42410;PMS5003;28056;51.112;0.984;2023-07-31T14:56:00;2;2;
42410;PMS5003;28056;51.112;0.984;2023-07-31T14:58:27;7;6;
42410;PMS5003;28056;51.112;0.984;2023-07-31T15:00:54;1;1;
42410;PMS5003;28056;51.112;0.984;2023-07-31T15:03:22;4;2;
42410;PMS5003;28056;51.112;0.984;2023-07-31T15:05:49;1;1;
42410;PMS5003;28056;51.112;0.984;2023-07-31T15:08:17;2;1;
42410;PMS5003;28056;51.112;0.984;2023-07-31T15:10:44;1;1;
42410;PMS5003;28056;51.112;0.984;2023-07-31T15:13:12;1;1;
42410;PMS5003;28056;51.112;0.984;2023-07-31T15:15:40;2;2;
42410;PMS5003;28056;51.112;0.984;2023-07-31T15:18:07;1;1;
42410;PMS5003;28056;51.112;0.984;2023-07-31T15:20:34;3;3;
42410;PMS5003;28056;51.112;0.984;2023-07-31T15:23:02;1;1;
42410;PMS5003;28056;51.112;0.984;2023-07-31T15:25:30;1;1;
42410;PMS5003;28056;51.112;0.984;2023-07-31T15:27:57;1;1;
42410;PMS5003;28056;51.112;0.984;2023-07-31T15:30:25;2;2;
42410;PMS5003;28056;51.112;0.984;2023-07-31T15:32:52;3;1;
42410;PMS5003;28056;51.112;0.984;2023-07-31T15:35:20;2;2;
42410;PMS5003;28056;51.112;0.984;2023-07-31T15:37:47;1;1;
42410;PMS5003;28056;51.112;0.984;2023-07-31T15:40:15;1;1;
42410;PMS5003;28056;51.112;0.984;2023-07-31T15:42:42;1;1;
42410;PMS5003;28056;51.112;0.984;2023-07-31T15:45:10;5;2;
42410;PMS5003;28056;51.112;0.984;2023-07-31T15:47:37;2;2;
42410;PMS5003;28056;51.112;0.984;2023-07-31T15:50:06;1;1;
42410;PMS5003;28056;51.112;0.984;2023-07-31T15:52:33;1;1;
42410;PMS5003;28056;51.112;0.984;2023-07-31T15:55:01;3;1;
42410;PMS5003;28056;51.112;0.984;2023-07-31T15:57:28;1;1;
42410;PMS5003;28056;51.112;0.984;2023-07-31T15:59:56;1;1;
42410;PMS5003;28056;51.112;0.984;2023-07-31T16:02:23;2;2;
42410;PMS5003;28056;51.112;0.984;2023-07-31T16:04:51;0;0;
42410;PMS5003;28056;51.112;0.984;2023-07-31T16:07:19;1;1;
42410;PMS5003;28056;51.112;0.984;2023-07-31T16:09:46;2;2;
42410;PMS5003;28056;51.112;0.984;2023-07-31T16:12:14;2;1;
42410;PMS5003;28056;51.112;0.984;2023-07-31T16:14:41;2;2;
42410;PMS5003;28056;51.112;0.984;2023-07-31T16:17:09;1;1;
42410;PMS5003;28056;51.112;0.984;2023-07-31T16:19:36;1;1;
42410;PMS5003;28056;51.112;0.984;2023-07-31T16:22:04;0;0;
42410;PMS5003;28056;51.112;0.984;2023-07-31T16:24:31;2;1;
42410;PMS5003;28056;51.112;0.984;2023-07-31T16:26:59;3;1;
42410;PMS5003;28056;51.112;0.984;2023-07-31T16:29:27;2;2;
42410;PMS5003;28056;51.112;0.984;2023-07-31T16:31:55;2;2;
42410;PMS5003;28056;51.112;0.984;2023-07-31T16:34:23;2;2;
42410;PMS5003;28056;51.112;0.984;2023-07-31T16:36:50;1;1;
42410;PMS5003;28056;51.112;0.984;2023-07-31T16:39:18;3;3;
42410;PMS5003;28056;51.112;0.984;2023-07-31T16:41:45;2;2;
42410;PMS5003;28056;51.112;0.984;2023-07-31T16:44:13;2;1;
42410;PMS5003;28056;51.112;0.984;2023-07-31T16:46:40;1;1;
42410;PMS5003;28056;51.112;0.984;2023-07-31T16:49:08;2;2;
42410;PMS5003;28056;51.112;0.984;2023-07-31T16:51:35;2;2;
42410;PMS5003;28056;51.112;0.984;2023-07-31T16:54:03;2;2;
42410;PMS5003;28056;51.112;0.984;2023-07-31T16:56:30;1;1;
42410;PMS5003;28056;51.112;0.984;2023-07-31T16:58:58;3;1;
42410;PMS5003;28056;51.112;0.984;2023-07-31T17:01:25;3;3;